Author Topic: Watch a Delta flight race Hurricane Irma into and out of Puerto Rico  (Read 170 times)

Offline theman280

  • Newbie
  • *
  • Posts: 34



Offline kb4tez

  • Newbie
  • *
  • Posts: 48
Re: Watch a Delta flight race Hurricane Irma into and out of Puerto Rico
« Reply #1 on: September 07, 2017, 12:31:58 PM »
for us here in South Florida, we appreciate those who fly thru them for a living.

Offline tyketto

  • Hero Member
  • *****
  • Posts: 1012
Re: Watch a Delta flight race Hurricane Irma into and out of Puerto Rico
« Reply #2 on: September 08, 2017, 12:12:20 AM »

And the TJSJ feeds went down 3 hours before DAL431 made it there and turned around.. That would have been a great time to listen in on the feed.

Here's the last METAR reading before Irma hit:

TJSJ 061756Z COR 34021G39KT 4SM -RA BR FEW021 BKN029 OVC060 28/26 A2960 RMK AO2 PK WND 33039/1750 PRESFR SLP022 LAST OBSERVATION DUE TO HURICANE EVACUATING SJU TWR P0002 60072 T02780256 10300 20239 58063

TJSJ 061656Z 36024G31KT 9SM -RA SCT015 BKN022 OVC032 28/24 A2969 RMK AO2 PK WND 36031/1655 SLP052 P0004 T02830244

BL.